Time;durP1;ratioP1;P1;durP2;ratioP2;P2;SDS_P1;SDS_P2;PMS_P1;PMS_P2;Temp;Humidity;BMP_temperature;BMP_pressure;BME280_temperature;BME280_humidity;BME280_pressure;Samples;Min_cycle;Max_cycle;Signal;HPM_P1;HPM_P2
2023/01/31 00:01:29;;;;;;;;;;;;;;;10.62;42.04;101119.69;6181580;23;19966;-82
2023/01/31 00:04:02;;;;;;;;;;;;;;;10.65;42.24;101128.06;6181896;23;19912;-82
2023/01/31 00:06:31;;;;;;;;;;;;;;;10.66;42.26;101118.16;6181932;23;20333;-82
2023/01/31 00:08:58;;;;;;;;;;;;;;;10.57;41.83;101123.88;6181158;23;19919;-83
2023/01/31 00:11:24;;;;;;;;;;;;;;;10.48;42.24;101122.66;6181161;23;19921;-82
2023/01/31 00:13:49;;;;;;;;;;;;;;;10.52;42.55;101122.97;6155304;23;20297;-84
2023/01/31 00:16:15;;;;;;;;;;;;;;;10.54;42.44;101121.69;6181732;23;19915;-83
2023/01/31 00:18:41;;;;;;;;;;;;;;;10.56;42.27;101129.50;6181632;23;19947;-82
2023/01/31 00:21:08;;;;;;;;;;;;;;;10.53;41.93;101130.78;6181996;23;19919;-82
2023/01/31 00:23:33;;;;;;;;;;;;;;;10.54;42.19;101124.38;6181695;23;19930;-84
2023/01/31 00:26:15;;;;;;;;;;;;;;;10.58;42.26;101135.41;6181580;23;20449;-83
2023/01/31 00:28:41;;;;;;;;;;;;;;;10.50;41.33;101123.22;6181268;23;20327;-83
2023/01/31 00:31:07;;;;;;;;;;;;;;;10.50;41.87;101131.25;6181757;23;19912;-83
2023/01/31 00:33:33;;;;;;;;;;;;;;;10.45;41.83;101128.50;6181165;23;19908;-82
2023/01/31 00:36:01;;;;;;;;;;;;;;;10.38;41.90;101133.16;6155090;23;19959;-82
2023/01/31 00:38:26;;;;;;;;;;;;;;;10.36;41.93;101135.25;6155387;23;19927;-82
2023/01/31 00:40:52;;;;;;;;;;;;;;;10.39;42.12;101150.84;6181525;23;20300;-84
2023/01/31 00:43:18;;;;;;;;;;;;;;;10.44;42.39;101148.28;6181227;23;19939;-82
2023/01/31 00:45:43;;;;;;;;;;;;;;;10.44;42.30;101153.66;6154899;23;19908;-82
2023/01/31 00:48:08;;;;;;;;;;;;;;;10.47;42.53;101155.84;6181050;23;19912;-84
2023/01/31 00:50:33;;;;;;;;;;;;;;;10.48;41.68;101164.72;6181940;23;19953;-83
2023/01/31 00:52:59;;;;;;;;;;;;;;;10.44;42.34;101164.38;6181779;23;19936;-84
2023/01/31 00:55:24;;;;;;;;;;;;;;;10.36;41.50;101161.22;6181833;23;19912;-83
2023/01/31 00:57:50;;;;;;;;;;;;;;;10.40;42.62;101163.19;6180649;23;19913;-85
2023/01/31 01:00:15;;;;;;;;;;;;;;;10.43;42.51;101168.09;6182639;23;20442;-84
2023/01/31 01:02:41;;;;;;;;;;;;;;;10.44;41.45;101183.13;6181626;23;19908;-84
2023/01/31 01:05:06;;;;;;;;;;;;;;;10.43;41.77;101183.34;6181058;23;19989;-84
2023/01/31 01:07:32;;;;;;;;;;;;;;;10.44;42.16;101183.13;6181446;23;20329;-84
2023/01/31 01:09:57;;;;;;;;;;;;;;;10.42;42.13;101182.56;6181823;23;19908;-84
2023/01/31 01:12:22;;;;;;;;;;;;;;;10.45;42.15;101192.78;6182700;23;19912;-82
2023/01/31 01:14:48;;;;;;;;;;;;;;;10.50;42.17;101192.06;6182631;23;20340;-84
2023/01/31 01:17:13;;;;;;;;;;;;;;;10.46;41.68;101193.59;6181789;23;19908;-82
2023/01/31 01:19:38;;;;;;;;;;;;;;;10.46;42.09;101186.38;6183116;23;19983;-84
2023/01/31 01:22:04;;;;;;;;;;;;;;;10.42;41.96;101185.22;6157628;23;19912;-83
2023/01/31 01:24:29;;;;;;;;;;;;;;;10.40;41.80;101189.97;6184344;23;19928;-83
2023/01/31 01:26:54;;;;;;;;;;;;;;;10.37;42.13;101184.28;6184062;23;19908;-83
2023/01/31 01:29:20;;;;;;;;;;;;;;;10.37;42.10;101195.81;6183554;23;20362;-83
2023/01/31 01:31:45;;;;;;;;;;;;;;;10.42;42.29;101195.13;6183789;23;19912;-85
2023/01/31 01:34:12;;;;;;;;;;;;;;;10.41;41.82;101191.63;6183408;23;19909;-84
2023/01/31 01:36:38;;;;;;;;;;;;;;;10.41;41.86;101202.34;6183942;23;19908;-83
2023/01/31 01:39:04;;;;;;;;;;;;;;;10.38;42.01;101194.75;6184150;23;19916;-83
2023/01/31 01:41:32;;;;;;;;;;;;;;;10.42;42.20;101211.19;6183991;23;20399;-83
2023/01/31 01:43:58;;;;;;;;;;;;;;;10.41;42.32;101207.72;6183689;23;19959;-84
2023/01/31 01:46:36;;;;;;;;;;;;;;;10.47;41.99;101208.63;6183874;23;19913;-83
2023/01/31 01:49:21;;;;;;;;;;;;;;;10.41;42.21;101223.78;6183069;23;19943;-82
2023/01/31 01:51:47;;;;;;;;;;;;;;;10.45;42.30;101219.56;6182875;23;20276;-83
2023/01/31 01:54:16;;;;;;;;;;;;;;;10.40;41.83;101219.44;6181544;23;19937;-83
2023/01/31 01:56:42;;;;;;;;;;;;;;;10.40;41.95;101222.13;6183389;23;19983;-83
2023/01/31 01:59:19;;;;;;;;;;;;;;;10.37;41.91;101227.13;6183692;23;20291;-84
2023/01/31 02:01:45;;;;;;;;;;;;;;;10.36;42.31;101233.53;6183402;23;19909;-83
2023/01/31 02:04:14;;;;;;;;;;;;;;;10.40;42.17;101226.66;6183629;23;19920;-83
2023/01/31 02:06:39;;;;;;;;;;;;;;;10.34;42.04;101236.47;6183433;23;19990;-83
2023/01/31 02:09:07;;;;;;;;;;;;;;;10.22;41.89;101239.13;6183101;23;19942;-82
2023/01/31 02:11:33;;;;;;;;;;;;;;;10.29;42.06;101241.72;6183057;23;19916;-84
2023/01/31 02:14:04;;;;;;;;;;;;;;;10.26;42.38;101239.50;6183398;23;19908;-83
2023/01/31 02:16:29;;;;;;;;;;;;;;;10.28;42.04;101248.13;6157391;23;19920;-84
2023/01/31 02:18:55;;;;;;;;;;;;;;;10.27;42.23;101246.50;6182804;23;19908;-84
2023/01/31 02:21:53;;;;;;;;;;;;;;;10.30;42.15;101248.69;6183727;23;19915;-84
2023/01/31 02:24:21;;;;;;;;;;;;;;;10.32;42.16;101260.00;6133080;23;19908;-84
2023/01/31 02:27:08;;;;;;;;;;;;;;;10.31;42.04;101273.63;6184234;23;20456;-83
2023/01/31 02:30:03;;;;;;;;;;;;;;;10.39;42.43;101279.44;6182111;23;20659;-83
2023/01/31 02:32:31;;;;;;;;;;;;;;;10.41;42.03;101281.88;6162466;23;19917;-81
2023/01/31 02:34:57;;;;;;;;;;;;;;;10.40;41.90;101297.13;6181597;23;19912;-81
2023/01/31 02:37:35;;;;;;;;;;;;;;;10.39;41.83;101295.50;6181583;23;19908;-82
2023/01/31 02:40:07;;;;;;;;;;;;;;;10.39;42.16;101294.69;6181639;23;19908;-82
2023/01/31 02:43:00;;;;;;;;;;;;;;;10.37;42.22;101310.19;6182293;23;19986;-82
2023/01/31 02:45:34;;;;;;;;;;;;;;;10.40;42.24;101310.53;6177982;23;19932;-81
2023/01/31 02:48:03;;;;;;;;;;;;;;;10.44;41.80;101322.44;6182034;23;19908;-82
2023/01/31 02:50:37;;;;;;;;;;;;;;;10.44;42.29;101318.94;6182261;23;19912;-82
2023/01/31 02:53:09;;;;;;;;;;;;;;;10.44;42.05;101316.25;6181662;23;19916;-81
2023/01/31 02:58:24;;;;;;;;;;;;;;;10.37;42.15;101313.66;6181943;23;19915;-82
2023/01/31 03:00:50;;;;;;;;;;;;;;;10.36;42.13;101314.72;6181177;23;20530;-83
2023/01/31 03:03:21;;;;;;;;;;;;;;;10.33;42.11;101320.53;6181110;23;19915;-82
2023/01/31 03:06:06;;;;;;;;;;;;;;;10.29;42.08;101322.06;6182318;23;19958;-81
2023/01/31 03:08:31;;;;;;;;;;;;;;;10.27;42.25;101322.31;6181317;23;20287;-82
2023/01/31 03:11:02;;;;;;;;;;;;;;;10.26;42.18;101330.56;6196523;22;19952;-85
2023/01/31 03:13:46;;;;;;;;;;;;;;;10.12;41.60;101331.78;6209131;23;19912;-85
2023/01/31 03:19:12;;;;;;;;;;;;;;;10.00;42.32;101326.41;6210061;23;19951;-85
2023/01/31 03:21:42;;;;;;;;;;;;;;;9.94;42.36;101336.19;6211580;23;19943;-85
2023/01/31 03:24:08;;;;;;;;;;;;;;;9.91;42.49;101339.31;6184086;23;19908;-85
2023/01/31 03:26:34;;;;;;;;;;;;;;;9.83;42.59;101328.94;6211031;23;19962;-85
2023/01/31 03:29:00;;;;;;;;;;;;;;;9.80;42.40;101340.09;6211063;23;19931;-85
2023/01/31 03:31:31;;;;;;;;;;;;;;;9.81;42.20;101336.38;6210773;23;19983;-85
2023/01/31 03:33:59;;;;;;;;;;;;;;;9.73;42.60;101336.72;6211134;23;19992;-85
2023/01/31 03:36:24;;;;;;;;;;;;;;;9.69;42.40;101344.38;6182142;23;20324;-84
2023/01/31 03:39:09;;;;;;;;;;;;;;;9.67;42.40;101350.97;6208377;23;19916;-85
2023/01/31 03:41:34;;;;;;;;;;;;;;;9.54;42.68;101343.97;6212077;23;19930;-85
2023/01/31 03:44:11;;;;;;;;;;;;;;;9.52;42.77;101346.06;6213029;23;20324;-84
2023/01/31 03:46:40;;;;;;;;;;;;;;;9.54;42.80;101343.16;6213422;23;19915;-85
2023/01/31 03:49:09;;;;;;;;;;;;;;;9.52;42.85;101350.59;6212454;23;19915;-84
2023/01/31 03:51:35;;;;;;;;;;;;;;;9.48;43.01;101362.75;6212739;23;20260;-86
2023/01/31 03:54:04;;;;;;;;;;;;;;;9.44;42.99;101357.06;6186765;23;20271;-85
2023/01/31 03:56:56;;;;;;;;;;;;;;;9.45;42.83;101365.91;6212326;23;19912;-84
2023/01/31 03:59:23;;;;;;;;;;;;;;;9.37;43.32;101350.97;6205655;23;19915;-84
2023/01/31 04:01:50;;;;;;;;;;;;;;;9.26;43.35;101360.56;6212470;23;19908;-85
2023/01/31 04:04:16;;;;;;;;;;;;;;;9.30;43.23;101369.75;6212121;23;20283;-84
2023/01/31 04:06:41;;;;;;;;;;;;;;;9.26;43.03;101376.59;6212656;23;19908;-85
2023/01/31 04:09:07;;;;;;;;;;;;;;;9.21;43.08;101379.16;6212182;23;20528;-84
2023/01/31 04:11:36;;;;;;;;;;;;;;;9.21;43.52;101375.66;6212001;23;19965;-85
2023/01/31 04:14:01;;;;;;;;;;;;;;;9.23;43.62;101385.09;6211800;23;19979;-84
2023/01/31 04:16:27;;;;;;;;;;;;;;;9.19;43.57;101381.22;6211446;23;19982;-84
2023/01/31 04:18:52;;;;;;;;;;;;;;;9.22;43.44;101380.78;6183382;23;19956;-84
2023/01/31 04:21:17;;;;;;;;;;;;;;;9.18;43.89;101379.59;6211831;23;19908;-84
2023/01/31 04:23:43;;;;;;;;;;;;;;;9.19;43.91;101385.75;6212311;23;19908;-84
2023/01/31 04:26:08;;;;;;;;;;;;;;;9.23;43.93;101381.59;6212348;23;19927;-86
2023/01/31 04:28:34;;;;;;;;;;;;;;;9.27;43.69;101382.78;6211340;23;19908;-85
2023/01/31 04:30:59;;;;;;;;;;;;;;;9.28;43.75;101390.56;6211835;23;20490;-86
2023/01/31 04:33:24;;;;;;;;;;;;;;;9.29;43.56;101386.03;6211937;23;19977;-85
2023/01/31 04:35:50;;;;;;;;;;;;;;;9.31;43.48;101394.66;6212076;23;19916;-84
2023/01/31 04:38:16;;;;;;;;;;;;;;;9.35;43.79;101395.84;6211737;23;19915;-85
2023/01/31 04:40:41;;;;;;;;;;;;;;;9.33;43.64;101389.88;6212210;23;20428;-85
2023/01/31 04:43:07;;;;;;;;;;;;;;;9.38;43.87;101401.56;6211422;23;19907;-84
2023/01/31 04:45:32;;;;;;;;;;;;;;;9.41;43.45;101405.66;6211997;23;19957;-85
2023/01/31 04:47:57;;;;;;;;;;;;;;;9.39;43.50;101397.84;6211283;23;19912;-84
2023/01/31 04:50:23;;;;;;;;;;;;;;;9.32;43.49;101409.66;6211917;23;20291;-84
2023/01/31 04:52:51;;;;;;;;;;;;;;;9.34;43.94;101405.75;6211738;23;19911;-85
2023/01/31 04:55:17;;;;;;;;;;;;;;;9.33;43.85;101409.44;6186879;23;19915;-84
2023/01/31 04:57:42;;;;;;;;;;;;;;;9.35;43.78;101420.75;6213572;23;20007;-84
2023/01/31 05:00:08;;;;;;;;;;;;;;;9.37;43.44;101410.63;6187584;23;20575;-84
2023/01/31 05:02:33;;;;;;;;;;;;;;;9.31;43.92;101400.00;6214937;23;19935;-84
2023/01/31 05:04:59;;;;;;;;;;;;;;;9.31;43.64;101403.50;6214846;23;19934;-84
2023/01/31 05:07:24;;;;;;;;;;;;;;;9.28;43.77;101417.31;6187098;23;19962;-84
2023/01/31 05:09:50;;;;;;;;;;;;;;;9.31;43.90;101414.19;6214595;23;19919;-85
2023/01/31 05:12:15;;;;;;;;;;;;;;;9.29;43.77;101408.25;6214375;23;19912;-84
2023/01/31 05:14:40;;;;;;;;;;;;;;;9.20;43.84;101414.94;6214903;23;20319;-84
2023/01/31 05:17:06;;;;;;;;;;;;;;;9.18;44.13;101416.22;6214407;23;19927;-84
2023/01/31 05:19:31;;;;;;;;;;;;;;;9.17;44.19;101417.25;6214133;23;20243;-84
2023/01/31 05:21:59;;;;;;;;;;;;;;;9.19;43.93;101407.16;6213949;23;19940;-85
2023/01/31 05:24:29;;;;;;;;;;;;;;;9.18;44.20;101424.22;6214356;23;19907;-84
2023/01/31 05:26:57;;;;;;;;;;;;;;;9.13;43.79;101432.91;6214278;23;20625;-84
2023/01/31 05:29:32;;;;;;;;;;;;;;;9.14;43.72;101431.03;6213265;23;19912;-84
2023/01/31 05:31:59;;;;;;;;;;;;;;;9.12;43.64;101438.47;6213849;23;19935;-84
2023/01/31 05:34:25;;;;;;;;;;;;;;;9.08;43.88;101443.44;6213304;23;19982;-84
2023/01/31 05:36:53;;;;;;;;;;;;;;;9.03;44.30;101444.13;6212901;23;19919;-84
2023/01/31 05:39:19;;;;;;;;;;;;;;;9.01;44.06;101448.88;6213337;23;19908;-85
2023/01/31 05:41:44;;;;;;;;;;;;;;;9.00;44.38;101449.91;6212520;23;19908;-86
2023/01/31 05:44:10;;;;;;;;;;;;;;;8.99;44.23;101458.16;6213124;23;20029;-84
2023/01/31 05:46:35;;;;;;;;;;;;;;;8.96;44.30;101455.88;6213197;23;20593;-84
2023/01/31 05:49:01;;;;;;;;;;;;;;;8.95;44.44;101463.09;6213386;23;19991;-84
2023/01/31 05:51:26;;;;;;;;;;;;;;;8.95;44.32;101459.59;6213234;23;19915;-86
2023/01/31 05:53:52;;;;;;;;;;;;;;;8.93;44.47;101472.38;6213064;23;19912;-85
2023/01/31 05:56:18;;;;;;;;;;;;;;;8.91;44.28;101474.44;6213220;23;19928;-85
2023/01/31 05:58:47;;;;;;;;;;;;;;;8.95;44.18;101478.31;6212647;23;19915;-85
2023/01/31 06:01:12;;;;;;;;;;;;;;;8.88;44.25;101467.69;6212416;23;19908;-85
2023/01/31 06:03:37;;;;;;;;;;;;;;;8.85;44.61;101476.16;6212195;23;19908;-85
2023/01/31 06:06:04;;;;;;;;;;;;;;;8.80;44.41;101473.31;6212574;23;20344;-85
2023/01/31 06:08:29;;;;;;;;;;;;;;;8.81;44.87;101479.47;6212693;23;19911;-84
2023/01/31 06:10:54;;;;;;;;;;;;;;;8.81;44.91;101474.13;6212321;23;20348;-84
2023/01/31 06:13:20;;;;;;;;;;;;;;;8.86;44.61;101475.09;6212787;23;19920;-84
2023/01/31 06:15:45;;;;;;;;;;;;;;;8.80;45.01;101486.69;6212915;23;19935;-84
2023/01/31 06:18:12;;;;;;;;;;;;;;;8.78;44.67;101486.88;6211877;23;19912;-84
2023/01/31 06:20:37;;;;;;;;;;;;;;;8.76;45.00;101488.13;6212421;23;19918;-84
2023/01/31 06:23:03;;;;;;;;;;;;;;;8.74;44.63;101493.69;6213889;23;19986;-84
2023/01/31 06:25:28;;;;;;;;;;;;;;;8.75;45.17;101498.00;6213982;23;19915;-87
2023/01/31 06:27:54;;;;;;;;;;;;;;;8.77;44.70;101500.44;6213581;23;19907;-84
2023/01/31 06:30:19;;;;;;;;;;;;;;;8.81;45.02;101500.84;6214393;23;19970;-84
2023/01/31 06:32:45;;;;;;;;;;;;;;;8.82;45.05;101497.97;6214118;23;19934;-84
2023/01/31 06:35:10;;;;;;;;;;;;;;;8.79;44.72;101493.84;6214129;23;19908;-84
2023/01/31 06:37:36;;;;;;;;;;;;;;;8.78;45.31;101500.22;6213129;23;20442;-85
2023/01/31 06:40:01;;;;;;;;;;;;;;;8.81;44.90;101508.88;6213273;23;19915;-85
2023/01/31 06:42:26;;;;;;;;;;;;;;;8.88;44.95;101510.44;6213877;23;19908;-84
2023/01/31 06:44:52;;;;;;;;;;;;;;;8.87;45.04;101510.66;6212897;23;19914;-84
2023/01/31 06:47:17;;;;;;;;;;;;;;;8.88;44.91;101506.97;6213420;23;19907;-84
2023/01/31 06:49:42;;;;;;;;;;;;;;;8.89;44.79;101508.59;6186614;23;19908;-86
2023/01/31 06:52:08;;;;;;;;;;;;;;;8.86;44.90;101506.34;6213215;23;20374;-84
2023/01/31 06:54:33;;;;;;;;;;;;;;;8.86;44.96;101509.84;6213383;23;20354;-85
2023/01/31 06:56:58;;;;;;;;;;;;;;;8.87;44.83;101511.47;6213172;23;19908;-84
2023/01/31 06:59:24;;;;;;;;;;;;;;;8.90;45.00;101510.22;6213450;23;19907;-84
2023/01/31 07:01:49;;;;;;;;;;;;;;;8.85;45.04;101502.88;6213174;23;19912;-85
2023/01/31 07:04:14;;;;;;;;;;;;;;;8.84;45.23;101500.41;6212547;23;19908;-85
2023/01/31 07:06:40;;;;;;;;;;;;;;;8.87;44.77;101511.47;6213486;23;19912;-84
2023/01/31 07:09:06;;;;;;;;;;;;;;;8.82;45.32;101515.84;6213194;23;19955;-84
2023/01/31 07:11:31;;;;;;;;;;;;;;;8.79;45.27;101520.56;6212075;23;19912;-84
2023/01/31 07:13:57;;;;;;;;;;;;;;;8.82;45.34;101516.66;6212180;23;19983;-84
2023/01/31 07:16:24;;;;;;;;;;;;;;;8.89;45.22;101525.44;6212098;23;19915;-83
2023/01/31 07:18:53;;;;;;;;;;;;;;;8.89;44.93;101532.66;6212526;23;19915;-84
2023/01/31 07:21:18;;;;;;;;;;;;;;;8.89;45.26;101529.97;6212948;23;20435;-85
2023/01/31 07:23:45;;;;;;;;;;;;;;;8.87;45.02;101518.69;6213233;23;19915;-85
2023/01/31 07:26:10;;;;;;;;;;;;;;;8.88;45.48;101518.47;6213004;23;19912;-84
2023/01/31 07:28:36;;;;;;;;;;;;;;;8.90;45.63;101521.72;6212300;23;19914;-85
2023/01/31 07:31:10;;;;;;;;;;;;;;;8.94;45.58;101525.59;6213186;23;19936;-84
2023/01/31 07:33:35;;;;;;;;;;;;;;;9.00;45.37;101521.25;6212177;23;19940;-84
2023/01/31 07:36:03;;;;;;;;;;;;;;;8.99;45.58;101519.63;6212864;23;20508;-83
2023/01/31 07:38:29;;;;;;;;;;;;;;;9.06;45.20;101520.38;6212525;23;19931;-84
2023/01/31 07:40:57;;;;;;;;;;;;;;;9.11;45.33;101522.38;6212465;23;20433;-85
2023/01/31 07:43:22;;;;;;;;;;;;;;;9.09;45.65;101519.94;6212775;23;20350;-85
2023/01/31 07:45:47;;;;;;;;;;;;;;;9.09;45.39;101506.56;6212868;23;19983;-85
2023/01/31 07:48:13;;;;;;;;;;;;;;;9.12;45.56;101514.13;6212196;23;19912;-84
2023/01/31 07:50:38;;;;;;;;;;;;;;;9.23;45.50;101520.63;6212273;23;20343;-84
2023/01/31 07:53:03;;;;;;;;;;;;;;;9.29;45.40;101514.41;6212620;23;20321;-85
2023/01/31 07:55:29;;;;;;;;;;;;;;;9.27;45.33;101521.81;6213081;23;19953;-84
2023/01/31 07:57:54;;;;;;;;;;;;;;;9.25;45.52;101518.56;6212884;23;19938;-85
2023/01/31 08:05:48;;;;;;;;;;;;;;;9.25;46.19;101518.56;6212468;23;19914;-84
2023/01/31 08:08:13;;;;;;;;;;;;;;;9.37;45.93;101520.28;6212027;23;19931;-85
2023/01/31 08:10:39;;;;;;;;;;;;;;;9.46;45.93;101520.81;6211892;23;19912;-84
2023/01/31 08:13:05;;;;;;;;;;;;;;;9.52;46.23;101527.16;6212427;23;19912;-85
2023/01/31 08:15:30;;;;;;;;;;;;;;;9.58;45.67;101531.59;6212673;23;20378;-84
2023/01/31 08:17:56;;;;;;;;;;;;;;;9.61;45.92;101523.13;6211296;23;19907;-85
2023/01/31 08:20:21;;;;;;;;;;;;;;;9.66;45.79;101524.09;6211822;23;19983;-84
2023/01/31 08:22:46;;;;;;;;;;;;;;;9.75;45.84;101521.94;6212631;23;19912;-84
2023/01/31 08:25:12;;;;;;;;;;;;;;;9.77;45.72;101511.00;6212440;23;19914;-85
2023/01/31 08:27:37;;;;;;;;;;;;;;;9.75;45.74;101519.25;6184882;23;19915;-84
2023/01/31 08:30:03;;;;;;;;;;;;;;;9.84;45.83;101519.78;6212148;23;19934;-83
2023/01/31 08:32:28;;;;;;;;;;;;;;;9.85;45.75;101521.41;6211297;23;19911;-84
2023/01/31 08:34:54;;;;;;;;;;;;;;;9.87;45.89;101513.97;6212280;23;19908;-85
2023/01/31 08:37:19;;;;;;;;;;;;;;;9.88;45.67;101523.66;6211090;23;19911;-85
2023/01/31 08:39:44;;;;;;;;;;;;;;;9.91;46.09;101524.03;6212417;23;19915;-84
2023/01/31 08:42:10;;;;;;;;;;;;;;;9.96;45.75;101516.13;6212367;23;19919;-85
2023/01/31 08:44:37;;;;;;;;;;;;;;;10.02;45.86;101518.94;6212239;23;19908;-84
2023/01/31 08:47:02;;;;;;;;;;;;;;;10.06;45.85;101525.50;6212930;23;19908;-85
2023/01/31 08:49:28;;;;;;;;;;;;;;;10.10;46.08;101515.97;6211791;23;20755;-83
2023/01/31 08:51:53;;;;;;;;;;;;;;;10.14;46.16;101512.59;6211962;23;19916;-85
2023/01/31 08:54:18;;;;;;;;;;;;;;;10.18;46.25;101523.66;6211938;23;20003;-84
2023/01/31 08:56:44;;;;;;;;;;;;;;;10.29;46.22;101521.06;6212054;23;20386;-85
2023/01/31 08:59:10;;;;;;;;;;;;;;;10.41;45.69;101514.94;6211316;23;19912;-84
2023/01/31 09:01:35;;;;;;;;;;;;;;;10.41;45.89;101513.09;6212211;23;20410;-84
2023/01/31 09:04:01;;;;;;;;;;;;;;;10.42;45.78;101508.56;6211960;23;19908;-85
2023/01/31 09:06:27;;;;;;;;;;;;;;;10.41;45.90;101507.75;6212294;23;19908;-83
2023/01/31 09:08:53;;;;;;;;;;;;;;;10.41;45.69;101502.38;6210464;23;19935;-83
2023/01/31 09:11:19;;;;;;;;;;;;;;;10.40;45.58;101500.72;6205412;22;19926;-81
2023/01/31 09:13:45;;;;;;;;;;;;;;;10.33;46.12;101497.31;6211200;23;19991;-81
2023/01/31 09:16:12;;;;;;;;;;;;;;;10.37;45.90;101501.19;6209615;23;19979;-83
2023/01/31 09:18:38;;;;;;;;;;;;;;;10.38;46.17;101486.75;6210920;23;19970;-81
2023/01/31 09:21:08;;;;;;;;;;;;;;;10.40;46.06;101479.28;6211384;23;20327;-81
2023/01/31 09:23:34;;;;;;;;;;;;;;;10.44;46.35;101475.13;6210933;23;19947;-82
2023/01/31 09:26:00;;;;;;;;;;;;;;;10.46;46.29;101488.28;6211819;23;19907;-81
2023/01/31 09:28:25;;;;;;;;;;;;;;;10.49;46.35;101480.59;6210178;23;19908;-82
2023/01/31 09:30:53;;;;;;;;;;;;;;;10.59;46.15;101480.88;6211473;23;19915;-82
2023/01/31 09:33:19;;;;;;;;;;;;;;;10.64;46.10;101480.19;6210827;23;20232;-83
2023/01/31 09:35:55;;;;;;;;;;;;;;;10.58;46.42;101473.03;6211682;23;19908;-82
2023/01/31 09:38:22;;;;;;;;;;;;;;;10.56;46.57;101473.28;6211047;23;20323;-83
2023/01/31 09:40:47;;;;;;;;;;;;;;;10.57;46.78;101471.41;6210585;23;19919;-83
2023/01/31 09:43:14;;;;;;;;;;;;;;;10.62;46.82;101476.09;6213262;23;19908;-83
2023/01/31 09:45:42;;;;;;;;;;;;;;;10.65;46.54;101464.91;6213238;23;19912;-83
2023/01/31 09:48:13;;;;;;;;;;;;;;;10.71;46.72;101478.19;6213236;23;19974;-82
2023/01/31 09:50:38;;;;;;;;;;;;;;;10.69;46.83;101479.47;6213288;23;19915;-82
2023/01/31 09:53:04;;;;;;;;;;;;;;;10.71;46.85;101464.78;6212690;23;19912;-82
2023/01/31 09:55:35;;;;;;;;;;;;;;;10.71;46.70;101469.34;6212677;23;20347;-82
2023/01/31 09:58:00;;;;;;;;;;;;;;;10.67;47.04;101469.00;6212778;23;19908;-83
2023/01/31 10:00:29;;;;;;;;;;;;;;;10.59;47.08;101464.78;6213763;23;19915;-82
2023/01/31 10:03:13;;;;;;;;;;;;;;;10.62;47.19;101465.38;6213370;23;19908;-84
2023/01/31 10:05:54;;;;;;;;;;;;;;;10.50;47.03;101460.00;6185074;23;19916;-82
2023/01/31 10:08:39;;;;;;;;;;;;;;;10.48;47.22;101454.03;6213112;23;19912;-83
2023/01/31 10:11:08;;;;;;;;;;;;;;;10.45;47.36;101455.31;6212943;23;19970;-83
2023/01/31 10:13:41;;;;;;;;;;;;;;;10.48;47.64;101449.50;6212528;23;19912;-82
2023/01/31 10:16:22;;;;;;;;;;;;;;;10.54;47.58;101437.84;6213003;23;19919;-82
2023/01/31 10:18:54;;;;;;;;;;;;;;;10.54;47.66;101440.53;6212842;23;19992;-81
2023/01/31 10:21:24;;;;;;;;;;;;;;;10.58;47.48;101436.34;6212663;23;19912;-82
2023/01/31 10:23:53;;;;;;;;;;;;;;;10.62;47.49;101431.34;6212312;23;19919;-84
2023/01/31 10:26:28;;;;;;;;;;;;;;;10.56;47.71;101433.06;6212871;23;19908;-83
2023/01/31 10:28:53;;;;;;;;;;;;;;;10.58;47.55;101425.63;6212896;23;19939;-82
2023/01/31 10:31:32;;;;;;;;;;;;;;;10.61;47.94;101421.69;6212680;23;20331;-82
2023/01/31 10:34:02;;;;;;;;;;;;;;;10.63;47.87;101408.06;6185661;23;19940;-84
2023/01/31 10:36:38;;;;;;;;;;;;;;;10.66;47.90;101421.81;6212768;23;19927;-84
2023/01/31 10:39:03;;;;;;;;;;;;;;;10.70;47.56;101409.56;6212421;23;19915;-83
2023/01/31 10:41:33;;;;;;;;;;;;;;;10.70;47.96;101414.09;6212651;23;20235;-83
2023/01/31 10:44:00;;;;;;;;;;;;;;;10.64;48.15;101398.97;6212299;23;20288;-82
2023/01/31 10:46:26;;;;;;;;;;;;;;;10.69;47.64;101401.75;6212510;23;19908;-83
2023/01/31 10:48:51;;;;;;;;;;;;;;;10.68;47.69;101402.81;6185648;23;19915;-82
2023/01/31 10:51:29;;;;;;;;;;;;;;;10.62;47.80;101393.84;6185544;23;19915;-84
2023/01/31 10:53:54;;;;;;;;;;;;;;;10.65;48.07;101385.34;6211873;23;19912;-83
2023/01/31 10:56:46;;;;;;;;;;;;;;;10.71;47.81;101383.56;6213030;23;19939;-83
2023/01/31 10:59:17;;;;;;;;;;;;;;;10.65;48.31;101374.59;6181415;23;19908;-83
2023/01/31 11:01:43;;;;;;;;;;;;;;;10.65;48.09;101371.13;6212822;23;19974;-83
2023/01/31 11:04:29;;;;;;;;;;;;;;;10.65;48.33;101363.06;6185063;23;20478;-84
2023/01/31 11:06:56;;;;;;;;;;;;;;;10.74;48.18;101358.97;6213072;23;19912;-83
2023/01/31 11:09:22;;;;;;;;;;;;;;;10.80;48.10;101352.69;6211915;23;19927;-83
2023/01/31 11:12:01;;;;;;;;;;;;;;;10.83;48.34;101338.81;6211583;23;19920;-83
2023/01/31 11:14:28;;;;;;;;;;;;;;;10.85;47.81;101326.00;6211930;23;19912;-83
2023/01/31 11:17:02;;;;;;;;;;;;;;;10.87;47.72;101324.72;6211869;23;19939;-84
2023/01/31 11:19:34;;;;;;;;;;;;;;;10.84;48.13;101313.66;6211536;23;20512;-84
2023/01/31 11:21:59;;;;;;;;;;;;;;;10.85;48.22;101309.91;6185234;23;19908;-85
2023/01/31 11:24:27;;;;;;;;;;;;;;;10.84;48.69;101302.94;6185268;23;19914;-84
2023/01/31 11:27:05;;;;;;;;;;;;;;;10.88;48.24;101293.34;6209521;23;19923;-84
2023/01/31 11:29:38;;;;;;;;;;;;;;;10.85;48.03;101283.91;6208713;23;20247;-84
2023/01/31 11:32:06;;;;;;;;;;;;;;;10.85;48.29;101272.38;6210166;23;19912;-84
2023/01/31 11:34:32;;;;;;;;;;;;;;;10.82;48.48;101272.88;6209301;23;19908;-83
2023/01/31 11:37:05;;;;;;;;;;;;;;;10.86;48.41;101274.00;6210734;23;19911;-83
2023/01/31 11:39:37;;;;;;;;;;;;;;;10.88;48.24;101267.34;6209970;23;20031;-84
2023/01/31 11:42:20;;;;;;;;;;;;;;;10.83;48.41;101258.41;6210514;23;19908;-83
2023/01/31 11:45:03;;;;;;;;;;;;;;;10.80;48.49;101258.88;6210645;23;19911;-85
2023/01/31 11:47:36;;;;;;;;;;;;;;;10.78;48.52;101250.28;6211108;23;19918;-84
2023/01/31 11:50:02;;;;;;;;;;;;;;;10.80;48.15;101245.47;6211322;23;19987;-85
2023/01/31 11:52:28;;;;;;;;;;;;;;;10.76;48.56;101236.25;6209858;23;20299;-85
2023/01/31 11:55:24;;;;;;;;;;;;;;;;;;;;;
2023/01/31 12:06:08;;;;;;;;;;;;;;;10.75;48.66;101216.69;6199992;22;19924;-83
2023/01/31 12:08:37;;;;;;;;;;;;;;;10.75;49.01;101205.97;6215904;23;19919;-83
2023/01/31 12:11:05;;;;;;;;;;;;;;;10.76;49.01;101194.19;6216720;23;19908;-84
2023/01/31 12:13:30;;;;;;;;;;;;;;;10.80;49.04;101191.88;6215985;23;19916;-84
2023/01/31 12:16:00;;;;;;;;;;;;;;;10.82;48.75;101187.91;6189936;23;19935;-84
2023/01/31 12:18:28;;;;;;;;;;;;;;;10.81;48.97;101180.09;6216640;23;20570;-83
2023/01/31 12:21:02;;;;;;;;;;;;;;;10.84;49.09;101171.56;6216575;23;19935;-83
2023/01/31 12:23:30;;;;;;;;;;;;;;;10.86;49.11;101169.47;6217158;23;19912;-84
2023/01/31 12:26:03;;;;;;;;;;;;;;;10.89;49.04;101171.66;6216528;23;19966;-83
2023/01/31 12:28:47;;;;;;;;;;;;;;;10.87;49.19;101171.09;6215017;23;19990;-84
2023/01/31 12:31:15;;;;;;;;;;;;;;;10.87;49.09;101158.50;6215423;23;19984;-84
2023/01/31 12:33:59;;;;;;;;;;;;;;;10.85;49.01;101157.13;6215262;23;19912;-84
2023/01/31 12:36:38;;;;;;;;;;;;;;;10.79;49.45;101150.84;6186037;23;20348;-83
2023/01/31 12:39:09;;;;;;;;;;;;;;;10.78;49.67;101149.22;6213401;23;19922;-83
2023/01/31 12:41:40;;;;;;;;;;;;;;;10.84;49.35;101144.78;6212054;23;19994;-83
2023/01/31 12:44:14;;;;;;;;;;;;;;;10.85;49.56;101138.34;6211475;23;19908;-84
2023/01/31 12:46:59;;;;;;;;;;;;;;;10.83;49.29;101117.16;6210996;23;19919;-84
2023/01/31 12:49:27;;;;;;;;;;;;;;;10.90;49.72;101119.66;6209248;23;19916;-84
2023/01/31 12:52:04;;;;;;;;;;;;;;;10.86;49.83;101107.81;6212211;23;19957;-84
2023/01/31 12:54:39;;;;;;;;;;;;;;;10.90;49.91;101100.91;6210678;23;19912;-84
2023/01/31 12:57:07;;;;;;;;;;;;;;;10.90;49.44;101100.91;6214054;23;20335;-84
2023/01/31 12:59:39;;;;;;;;;;;;;;;10.88;49.61;101089.63;6215131;23;19908;-83
2023/01/31 13:02:07;;;;;;;;;;;;;;;10.89;49.64;101083.19;6215402;23;19912;-83
2023/01/31 13:04:33;;;;;;;;;;;;;;;10.93;49.77;101076.28;6214922;23;19923;-84
2023/01/31 13:07:01;;;;;;;;;;;;;;;10.95;49.47;101071.53;6213198;23;20327;-84
2023/01/31 13:09:30;;;;;;;;;;;;;;;10.96;49.73;101070.47;6213046;23;19908;-85